Portada
METAR-TAF:

METAR-TAF

Aeroports :

Sankt Moritz, Suïssa

latitud: 46-32-03N, longitud: 9-53-03E, altitud: 1707 m

Observació

L'informe es va fer fa 15 minuts, a les 14:20 UTC
Vent 9 kt del Nord/Nord-Oest, variant entre Oest/Nord-Oest i Nord-Est
Temperatura -4°C
Humitat 42%
Pressió 999 hPa
Visibilitat 10 km o més
Núvols disperses a una alçada de 4500 ft
Cel ennuvolat a una alçada de 7500 ft

METAR: LSZS 261420Z 34009KT 290V040 9999 SCT045 BKN075 M04/M15 Q0999 RMK P TL180

Hora: 15:35 (14:35 UTC)

Pronòstic

L'informe es va fer fa 6 hores i 10 minuts, a les 08:25 UTC
Pronòstic vàlid del 26 a les 09 UTC al 26 a les 18 UTC
Vent 8 kt del Sud
Visibilitat 10 km o més
Núvols disperses a una alçada de 4000 ft
Temporalment
l' 26 a les 09 UTC al 26 a les 18 UTC
Visibilitat: 1200 m
Cel ennuvolat a una alçada de 600 ft
neu

TAF: LSZS 260825Z 2609/2618 17008KT 9999 SCT040 TXM02/2612Z TEMPO 2609/2618 1200 SN BKN006

Observacions i pronòstics meteorològics de més de 4000 aeroports (METAR i TAF).

Les estacions disponibles són els punts grocs i vermells al mapa.

Posi el ratolí al punt desitjat per veure el nom de l'estació.

Feu clic per veure les observacions i els pronòstics meteorològics.

Per canviar el mapa: feu clic els botons verds amb una creu de color negre per apropar; al botó verd amb un guió per allunyar la imatge; o en les fletxes verdes per a mapes adjacents.


METAR-TAF: